La Joya, Texas
Current Conditions -  °F | °C
As of 4:53 AM on Monday 20 Oct 2014 (Local Time) from KMFE Reporting Station
Clear Clear  
Wind Chill: 72°   Ceiling: Unl
Heat Index: 72°   Visibility: 10mi
Dew Point: 67°   Wind: 3mph
Humidity: 84%   Direction: 10°N
Pressure: 29.92"   Gusts: NA
Location:  26.25°N, 98.48°W
Report Text: KMFE 200953Z AUTO 01003KT 10SM CLR 22/19 A2992 RMK AO2 SLP128 T02220194
Loading
Personal Weather Stations






























Interactive Weather Map
Tropical Storm Tracking
New forecast layout! Learn more

10-Day Weather Forecast

Advertisements
Track Severe Weather on mobile